createdAt,value
2018-04-12T00:00:25.018Z,0.00
2018-04-12T00:01:25.157Z,0.00
2018-04-12T00:02:25.146Z,0.00
2018-04-12T00:03:25.109Z,0.00
2018-04-12T00:04:25.080Z,0.00
2018-04-12T00:05:25.224Z,0.00
2018-04-12T00:06:25.123Z,0.00
2018-04-12T00:07:25.353Z,0.00
2018-04-12T00:08:25.272Z,0.00
2018-04-12T00:09:25.188Z,0.00
2018-04-12T00:10:25.301Z,0.00
2018-04-12T00:11:25.199Z,0.00
2018-04-12T00:12:25.310Z,0.00
2018-04-12T00:13:25.233Z,0.00
2018-04-12T00:14:25.254Z,0.00
2018-04-12T00:15:25.383Z,0.00
2018-04-12T00:16:25.285Z,0.00
2018-04-12T00:17:25.403Z,0.00
2018-04-12T00:18:25.306Z,0.00
2018-04-12T00:19:25.448Z,0.00
2018-04-12T00:20:25.344Z,0.00
2018-04-12T00:21:25.366Z,0.00
2018-04-12T00:22:25.474Z,0.00
2018-04-12T00:23:25.397Z,0.00
2018-04-12T00:24:25.414Z,0.00
2018-04-12T00:25:25.543Z,0.00
2018-04-12T00:26:25.559Z,0.00
2018-04-12T00:27:25.549Z,0.00
2018-04-12T00:28:25.477Z,0.00
2018-04-12T00:29:25.607Z,0.00
2018-04-12T00:30:25.625Z,0.00
2018-04-12T00:31:25.517Z,0.00
2018-04-12T00:32:25.634Z,0.00
2018-04-12T00:33:25.555Z,0.00
2018-04-12T00:34:25.686Z,0.00
2018-04-12T00:35:25.707Z,0.00
2018-04-12T00:36:25.590Z,0.00
2018-04-12T00:37:25.715Z,0.00
2018-04-12T00:38:25.748Z,0.00
2018-04-12T00:39:25.769Z,0.00
2018-04-12T00:40:25.666Z,0.00
2018-04-12T00:41:25.681Z,0.00
2018-04-12T00:42:25.915Z,0.00
2018-04-12T00:43:25.830Z,0.00
2018-04-12T00:44:25.728Z,0.00
2018-04-12T00:45:25.734Z,0.00
2018-04-12T00:46:25.875Z,0.00
2018-04-12T00:47:25.865Z,0.00
2018-04-12T00:48:25.782Z,0.00
2018-04-12T00:49:25.877Z,0.00
2018-04-12T00:50:25.812Z,0.00
2018-04-12T00:51:25.835Z,0.00
2018-04-12T00:52:25.856Z,0.00
2018-04-12T00:53:25.973Z,0.00
2018-04-12T00:54:26.005Z,0.00
2018-04-12T00:55:25.898Z,0.00
2018-04-12T00:56:26.036Z,0.00
2018-04-12T00:57:25.930Z,0.00
2018-04-12T00:58:26.083Z,0.00
2018-04-12T00:59:26.183Z,0.00
2018-04-12T01:00:25.982Z,0.00
2018-04-12T01:01:26.001Z,0.00
2018-04-12T01:02:26.015Z,0.00
2018-04-12T01:03:26.032Z,0.00
2018-04-12T01:04:26.186Z,0.00
2018-04-12T01:05:26.056Z,0.00
2018-04-12T01:06:26.065Z,0.00
2018-04-12T01:07:26.207Z,0.00
2018-04-12T01:08:26.104Z,0.00
2018-04-12T01:09:26.312Z,0.00
2018-04-12T01:10:26.138Z,0.00
2018-04-12T01:11:26.152Z,0.00
2018-04-12T01:12:26.290Z,0.00
2018-04-12T01:13:26.175Z,0.00
2018-04-12T01:14:26.319Z,0.00
2018-04-12T01:15:26.371Z,0.00
2018-04-12T01:16:26.354Z,0.00
2018-04-12T01:17:26.364Z,0.00
2018-04-12T01:18:26.262Z,0.00
2018-04-12T01:19:26.267Z,0.00
2018-04-12T01:20:26.379Z,0.00
2018-04-12T01:21:26.307Z,0.00
2018-04-12T01:22:26.328Z,0.00
2018-04-12T01:23:26.459Z,0.00
2018-04-12T01:24:26.347Z,0.00
2018-04-12T01:25:26.589Z,0.00
2018-04-12T01:26:26.376Z,0.00
2018-04-12T01:27:26.520Z,0.00
2018-04-12T01:28:26.422Z,0.00
2018-04-12T01:29:26.554Z,0.00
2018-04-12T01:30:26.602Z,0.00
2018-04-12T01:31:26.585Z,0.00
2018-04-12T01:32:26.598Z,0.00
2018-04-12T01:33:26.489Z,0.00
2018-04-12T01:34:26.629Z,0.00
2018-04-12T01:35:26.618Z,0.00
2018-04-12T01:36:26.543Z,0.00
2018-04-12T01:37:26.546Z,0.00
2018-04-12T01:38:26.563Z,0.00
2018-04-12T01:39:26.705Z,0.00
2018-04-12T01:40:26.709Z,0.00
2018-04-12T01:41:26.740Z,0.00
2018-04-12T01:42:26.640Z,0.00
2018-04-12T01:43:26.640Z,0.00
2018-04-12T01:44:26.658Z,0.00
2018-04-12T01:45:26.952Z,0.00
2018-04-12T01:46:26.816Z,0.00
2018-04-12T01:47:26.830Z,0.00
2018-04-12T01:48:26.720Z,0.00
2018-04-12T01:49:26.743Z,0.00
2018-04-12T01:50:26.849Z,0.00
2018-04-12T01:51:26.892Z,0.00
2018-04-12T01:52:26.794Z,0.00
2018-04-12T01:53:26.928Z,0.00
2018-04-12T01:54:26.936Z,0.00
2018-04-12T01:55:26.932Z,0.00
2018-04-12T01:56:26.968Z,0.00
2018-04-12T01:57:26.872Z,0.00
2018-04-12T01:58:26.877Z,0.00
2018-04-12T01:59:27.017Z,0.00
2018-04-12T02:00:27.013Z,0.00
2018-04-12T02:01:27.049Z,0.00
2018-04-12T02:02:27.062Z,0.00
2018-04-12T02:03:26.949Z,0.00
2018-04-12T02:04:26.975Z,0.00
2018-04-12T02:05:27.078Z,0.00
2018-04-12T02:06:27.004Z,0.00
2018-04-12T02:07:27.025Z,0.00
2018-04-12T02:08:27.031Z,0.00
2018-04-12T02:09:27.170Z,0.00
2018-04-12T02:10:27.188Z,0.00
2018-04-12T02:11:27.176Z,0.00
2018-04-12T02:12:27.093Z,0.00
2018-04-12T02:13:27.108Z,0.00
2018-04-12T02:14:27.123Z,0.00
2018-04-12T02:15:27.264Z,0.00
2018-04-12T02:16:27.265Z,0.00
2018-04-12T02:17:27.184Z,0.00
2018-04-12T02:18:27.196Z,0.00
2018-04-12T02:19:27.197Z,0.00
2018-04-12T02:20:27.229Z,0.00
2018-04-12T02:21:27.331Z,0.00
2018-04-12T02:22:27.375Z,0.00
2018-04-12T02:23:27.389Z,0.00
2018-04-12T02:24:27.277Z,0.00
2018-04-12T02:25:27.303Z,0.00
2018-04-12T02:26:27.457Z,0.00
2018-04-12T02:27:27.332Z,0.00
2018-04-12T02:28:27.341Z,0.00
2018-04-12T02:29:27.484Z,0.00
2018-04-12T02:30:27.380Z,0.00
2018-04-12T02:31:27.487Z,0.00
2018-04-12T02:32:27.407Z,0.00
2018-04-12T02:33:27.548Z,0.00
2018-04-12T02:34:27.438Z,0.00
2018-04-12T02:35:27.580Z,0.00
2018-04-12T02:36:27.694Z,0.00
2018-04-12T02:37:27.612Z,0.00
2018-04-12T02:38:27.507Z,0.00
2018-04-12T02:39:27.511Z,0.00
2018-04-12T02:40:27.559Z,0.00
2018-04-12T02:41:27.717Z,0.00
2018-04-12T02:42:27.572Z,0.00
2018-04-12T02:43:27.577Z,0.00
2018-04-12T02:44:27.595Z,0.00
2018-04-12T02:45:27.739Z,0.00
2018-04-12T02:46:27.851Z,0.00
2018-04-12T02:47:27.642Z,0.00
2018-04-12T02:48:27.659Z,0.00
2018-04-12T02:49:27.801Z,0.00
2018-04-12T02:50:27.688Z,0.00
2018-04-12T02:51:27.814Z,0.00
2018-04-12T02:52:27.851Z,0.00
2018-04-12T02:53:27.873Z,0.00
2018-04-12T02:54:27.755Z,0.00
2018-04-12T02:55:27.896Z,0.00
2018-04-12T02:56:27.888Z,0.00
2018-04-12T02:57:27.800Z,0.00
2018-04-12T02:58:27.966Z,0.00
2018-04-12T02:59:27.855Z,0.00
2018-04-12T03:00:27.849Z,0.00
2018-04-12T03:01:28.145Z,0.00
2018-04-12T03:02:28.005Z,0.00
2018-04-12T03:03:27.893Z,0.00
2018-04-12T03:04:28.039Z,0.00
2018-04-12T03:05:27.935Z,0.00
2018-04-12T03:06:28.101Z,0.00
2018-04-12T03:07:28.089Z,0.00
2018-04-12T03:08:27.973Z,0.00
2018-04-12T03:09:28.117Z,0.00
2018-04-12T03:10:28.135Z,0.00
2018-04-12T03:11:28.149Z,0.00
2018-04-12T03:12:28.147Z,0.00
2018-04-12T03:13:28.055Z,0.00
2018-04-12T03:14:28.076Z,0.00
2018-04-12T03:15:28.216Z,0.00
2018-04-12T03:16:28.102Z,0.00
2018-04-12T03:17:28.224Z,0.00
2018-04-12T03:18:28.134Z,0.00
2018-04-12T03:19:28.279Z,0.00
2018-04-12T03:20:28.289Z,0.00
2018-04-12T03:21:28.183Z,0.00
2018-04-12T03:22:28.319Z,0.00
2018-04-12T03:23:28.320Z,0.00
2018-04-12T03:24:28.360Z,0.00
2018-04-12T03:25:28.370Z,0.00
2018-04-12T03:26:28.386Z,0.00
2018-04-12T03:27:28.290Z,0.00
2018-04-12T03:28:28.387Z,0.00
2018-04-12T03:29:28.434Z,0.00
2018-04-12T03:30:28.447Z,0.00
2018-04-12T03:31:28.342Z,0.00
2018-04-12T03:32:28.475Z,0.00
2018-04-12T03:33:28.364Z,0.00
2018-04-12T03:34:28.658Z,0.00
2018-04-12T03:35:28.395Z,0.00
2018-04-12T03:36:28.540Z,0.00
2018-04-12T03:37:28.552Z,0.00
2018-04-12T03:38:28.449Z,0.00
2018-04-12T03:39:28.686Z,0.00
2018-04-12T03:40:28.598Z,0.00
2018-04-12T03:41:28.616Z,0.00
2018-04-12T03:42:28.515Z,0.00
2018-04-12T03:43:28.522Z,0.00
2018-04-12T03:44:28.635Z,0.00
2018-04-12T03:45:28.553Z,0.00
2018-04-12T03:46:28.689Z,0.00
2018-04-12T03:47:28.582Z,0.00
2018-04-12T03:48:28.594Z,0.00
2018-04-12T03:49:28.822Z,0.00
2018-04-12T03:50:28.672Z,0.00
2018-04-12T03:51:28.648Z,0.00
2018-04-12T03:52:28.785Z,0.00
2018-04-12T03:53:28.800Z,0.00
2018-04-12T03:54:28.915Z,0.00
2018-04-12T03:55:28.834Z,0.00
2018-04-12T03:56:28.725Z,0.00
2018-04-12T03:57:28.732Z,0.00
2018-04-12T03:58:28.756Z,0.00
2018-04-12T03:59:28.865Z,0.00
2018-04-12T04:00:28.904Z,0.00
2018-04-12T04:01:28.922Z,0.00
2018-04-12T04:02:28.939Z,0.00
2018-04-12T04:03:28.953Z,0.00
2018-04-12T04:04:28.854Z,0.00
2018-04-12T04:05:29.003Z,0.00
2018-04-12T04:06:28.883Z,0.00
2018-04-12T04:07:29.017Z,0.00
2018-04-12T04:08:29.033Z,0.00
2018-04-12T04:09:29.048Z,0.00
2018-04-12T04:10:29.029Z,0.00
2018-04-12T04:11:28.951Z,0.00
2018-04-12T04:12:29.088Z,0.00
2018-04-12T04:13:28.974Z,0.00
2018-04-12T04:14:29.168Z,0.00
2018-04-12T04:15:29.233Z,0.00
2018-04-12T04:16:29.154Z,0.00
2018-04-12T04:17:29.047Z,0.00
2018-04-12T04:18:29.050Z,0.00
2018-04-12T04:19:29.069Z,0.00
2018-04-12T04:20:29.189Z,0.00
2018-04-12T04:21:29.099Z,0.00
2018-04-12T04:22:29.239Z,0.00
2018-04-12T04:23:29.254Z,0.00
2018-04-12T04:24:29.151Z,0.00
2018-04-12T04:25:33.691Z,0.00
2018-04-12T04:26:29.179Z,0.00
2018-04-12T04:27:29.201Z,0.00
2018-04-12T04:28:29.333Z,0.00
2018-04-12T04:29:29.346Z,0.00
2018-04-12T04:30:29.243Z,0.00
2018-04-12T04:31:29.363Z,0.00
2018-04-12T04:32:29.273Z,0.00
2018-04-12T04:33:29.411Z,0.00
2018-04-12T04:34:29.422Z,0.00
2018-04-12T04:35:29.311Z,0.00
2018-04-12T04:36:29.555Z,0.00
2018-04-12T04:37:29.349Z,0.00
2018-04-12T04:38:29.358Z,0.00
2018-04-12T04:39:29.379Z,0.00
2018-04-12T04:40:29.513Z,0.00
2018-04-12T04:41:29.631Z,0.00
2018-04-12T04:42:29.543Z,0.00
2018-04-12T04:43:29.431Z,0.00
2018-04-12T04:44:29.573Z,0.00
2018-04-12T04:45:29.479Z,0.00
2018-04-12T04:46:29.632Z,0.00
2018-04-12T04:47:29.619Z,0.00
2018-04-12T04:48:29.516Z,0.00
2018-04-12T04:49:29.653Z,0.00
2018-04-12T04:50:29.545Z,0.00
2018-04-12T04:51:29.652Z,0.00
2018-04-12T04:52:29.697Z,0.00
2018-04-12T04:53:29.593Z,0.00
2018-04-12T04:54:29.725Z,0.00
2018-04-12T04:55:29.621Z,0.00
2018-04-12T04:56:29.859Z,0.00
2018-04-12T04:57:29.770Z,0.00
2018-04-12T04:58:29.670Z,0.00
2018-04-12T04:59:29.673Z,0.00
2018-04-12T05:00:29.819Z,0.00
2018-04-12T05:01:29.939Z,0.00
2018-04-12T05:02:29.845Z,0.00
2018-04-12T05:03:29.863Z,0.00
2018-04-12T05:04:29.751Z,0.00
2018-04-12T05:05:29.773Z,0.00
2018-04-12T05:06:29.931Z,0.00
2018-04-12T05:07:29.803Z,0.00
2018-04-12T05:08:29.937Z,0.00
2018-04-12T05:09:29.952Z,0.00
2018-04-12T05:10:29.967Z,0.00
2018-04-12T05:11:29.983Z,0.00
2018-04-12T05:12:30.151Z,0.00
2018-04-12T05:13:30.013Z,0.00
2018-04-12T05:14:30.030Z,0.00
2018-04-12T05:15:30.084Z,0.00
2018-04-12T05:16:29.940Z,0.00
2018-04-12T05:17:30.096Z,0.00
2018-04-12T05:18:30.087Z,0.00
2018-04-12T05:19:29.977Z,0.00
2018-04-12T05:20:29.996Z,0.00
2018-04-12T05:21:30.135Z,0.00
2018-04-12T05:22:30.149Z,0.00
2018-04-12T05:23:30.343Z,0.00
2018-04-12T05:24:30.178Z,0.00
2018-04-12T05:25:30.196Z,0.00
2018-04-12T05:26:30.206Z,0.00
2018-04-12T05:27:30.096Z,0.00
2018-04-12T05:28:30.388Z,0.00
2018-04-12T05:29:30.136Z,0.00
2018-04-12T05:30:30.144Z,0.00
2018-04-12T05:31:30.164Z,0.00
2018-04-12T05:32:30.298Z,0.00
2018-04-12T05:33:30.465Z,0.00
2018-04-12T05:34:30.205Z,0.00
2018-04-12T05:35:30.345Z,0.00
2018-04-12T05:36:30.358Z,0.00
2018-04-12T05:37:30.385Z,0.00
2018-04-12T05:38:30.489Z,0.00
2018-04-12T05:39:30.406Z,0.00
2018-04-12T05:40:30.422Z,0.00
2018-04-12T05:41:30.435Z,0.00
2018-04-12T05:42:30.452Z,0.00
2018-04-12T05:43:30.622Z,0.00
2018-04-12T05:44:30.480Z,0.00
2018-04-12T05:45:30.370Z,0.00
2018-04-12T05:46:30.510Z,0.00
2018-04-12T05:47:30.533Z,0.00
2018-04-12T05:48:30.538Z,0.00
2018-04-12T05:49:30.655Z,0.00
2018-04-12T05:50:30.451Z,0.00
2018-04-12T05:51:30.457Z,0.00
2018-04-12T05:52:30.473Z,0.00
2018-04-12T05:53:30.499Z,0.00
2018-04-12T05:54:30.653Z,0.00
2018-04-12T05:55:30.525Z,0.00
2018-04-12T05:56:30.541Z,0.00
2018-04-12T05:57:30.550Z,0.00
2018-04-12T05:58:30.688Z,0.00
2018-04-12T05:59:30.679Z,0.00
2018-04-12T06:00:30.603Z,0.00
2018-04-12T06:01:30.743Z,0.00
2018-04-12T06:02:30.625Z,0.00
2018-04-12T06:03:30.763Z,0.00
2018-04-12T06:04:30.881Z,0.00
2018-04-12T06:05:30.666Z,0.00
2018-04-12T06:06:30.808Z,0.00
2018-04-12T06:07:30.696Z,0.00
2018-04-12T06:08:30.840Z,0.00
2018-04-12T06:09:30.960Z,0.00
2018-04-12T06:10:30.871Z,0.00
2018-04-12T06:11:30.761Z,0.00
2018-04-12T06:12:30.900Z,0.00
2018-04-12T06:13:30.916Z,0.00
2018-04-12T06:14:30.952Z,0.00
2018-04-12T06:15:30.827Z,0.00
2018-04-12T06:16:30.960Z,0.00
2018-04-12T06:17:30.858Z,0.00
2018-04-12T06:18:30.991Z,0.00
2018-04-12T06:19:31.108Z,0.00
2018-04-12T06:20:31.032Z,0.00
2018-04-12T06:21:31.037Z,0.00
2018-04-12T06:22:30.923Z,0.00
2018-04-12T06:23:31.067Z,0.00
2018-04-12T06:24:31.182Z,0.00
2018-04-12T06:25:31.099Z,0.00
2018-04-12T06:26:31.109Z,0.00
2018-04-12T06:27:31.008Z,0.00
2018-04-12T06:28:31.063Z,0.00
2018-04-12T06:29:31.042Z,0.00
2018-04-12T06:30:31.320Z,0.00
2018-04-12T06:31:31.185Z,0.00
2018-04-12T06:32:31.201Z,0.00
2018-04-12T06:33:31.215Z,0.00
2018-04-12T06:34:31.112Z,0.00
2018-04-12T06:35:31.395Z,0.00
2018-04-12T06:36:31.261Z,0.00
2018-04-12T06:37:31.151Z,0.00
2018-04-12T06:38:31.186Z,0.00
2018-04-12T06:39:31.177Z,0.00
2018-04-12T06:40:31.205Z,0.00
2018-04-12T06:41:31.371Z,0.00
2018-04-12T06:42:31.233Z,0.00
2018-04-12T06:43:31.250Z,0.00
2018-04-12T06:44:31.379Z,0.00
2018-04-12T06:45:31.273Z,0.00
2018-04-12T06:46:31.511Z,0.00
2018-04-12T06:47:31.306Z,0.00
2018-04-12T06:48:31.439Z,0.00
2018-04-12T06:49:31.455Z,0.00
2018-04-12T06:50:31.343Z,0.00
2018-04-12T06:51:31.584Z,0.00
2018-04-12T06:52:31.499Z,0.00
2018-04-12T06:53:31.389Z,0.00
2018-04-12T06:54:31.408Z,0.00
2018-04-12T06:55:31.543Z,0.00
2018-04-12T06:56:31.528Z,0.00
2018-04-12T06:57:31.490Z,0.00
2018-04-12T06:58:31.467Z,0.00
2018-04-12T06:59:31.526Z,0.00
2018-04-12T07:00:31.489Z,0.00
2018-04-12T07:01:31.786Z,0.00
2018-04-12T07:02:31.533Z,0.00
2018-04-12T07:03:31.535Z,0.00
2018-04-12T07:04:31.549Z,0.00
2018-04-12T07:05:31.573Z,0.00
2018-04-12T07:07:31.725Z,0.00
2018-04-12T07:08:31.611Z,0.00
2018-04-12T07:09:31.633Z,0.00
2018-04-12T07:10:31.644Z,0.00
2018-04-12T07:11:31.767Z,0.00
2018-04-12T07:12:31.798Z,0.00
2018-04-12T07:13:31.811Z,0.00
2018-04-12T07:14:31.825Z,0.00
2018-04-12T07:15:31.735Z,0.00
2018-04-12T07:16:31.897Z,0.00
2018-04-12T07:17:31.752Z,0.00
2018-04-12T07:18:31.773Z,0.00
2018-04-12T07:19:31.789Z,0.00
2018-04-12T07:20:31.917Z,0.00
2018-04-12T07:21:31.959Z,0.00
2018-04-12T07:22:31.825Z,0.00
2018-04-12T07:23:31.832Z,0.00
2018-04-12T07:24:31.978Z,0.00
2018-04-12T07:25:31.861Z,0.00
2018-04-12T07:26:32.106Z,0.00
2018-04-12T07:27:32.022Z,0.00
2018-04-12T07:28:31.915Z,0.00
2018-04-12T07:29:31.924Z,0.00
2018-04-12T07:30:31.943Z,0.00
2018-04-12T07:31:32.050Z,0.00
2018-04-12T07:32:31.970Z,0.00
2018-04-12T07:33:31.985Z,0.00
2018-04-12T07:34:32.001Z,0.00
2018-04-12T07:35:32.139Z,0.00
2018-04-12T07:36:32.252Z,0.00
2018-04-12T07:37:32.167Z,0.00
2018-04-12T07:38:32.054Z,0.00
2018-04-12T07:39:32.201Z,0.00
2018-04-12T07:40:32.083Z,0.00
2018-04-12T07:41:32.228Z,0.00
2018-04-12T07:42:32.231Z,0.00
2018-04-12T07:43:32.258Z,0.00
2018-04-12T07:44:32.145Z,0.00
2018-04-12T07:45:32.287Z,0.00
2018-04-12T07:46:32.305Z,0.00
2018-04-12T07:47:32.417Z,0.00
2018-04-12T07:48:32.331Z,0.00
2018-04-12T07:49:32.346Z,0.00
2018-04-12T07:50:32.362Z,0.00
2018-04-12T07:51:32.248Z,0.00
2018-04-12T07:52:32.267Z,0.00
2018-04-12T07:53:32.506Z,0.00
2018-04-12T07:54:32.422Z,0.00
2018-04-12T07:55:32.308Z,0.00
2018-04-12T07:56:32.449Z,0.00
2018-04-12T07:57:32.466Z,0.00
2018-04-12T07:58:32.579Z,0.00
2018-04-12T07:59:32.494Z,0.00
2018-04-12T08:00:32.379Z,0.00
2018-04-12T08:01:32.524Z,0.00
2018-04-12T08:02:32.541Z,0.00
2018-04-12T08:03:32.655Z,0.00
2018-04-12T08:04:32.450Z,0.00
2018-04-12T08:05:32.470Z,0.00
2018-04-12T08:06:32.474Z,0.00
2018-04-12T08:07:32.611Z,0.00
2018-04-12T08:08:32.727Z,0.00
2018-04-12T08:09:32.515Z,0.00
2018-04-12T08:10:32.655Z,0.00
2018-04-12T08:11:32.546Z,0.00
2018-04-12T08:12:32.686Z,0.00
2018-04-12T08:13:32.676Z,0.00
2018-04-12T08:14:32.718Z,0.00
2018-04-12T08:15:32.729Z,0.00
2018-04-12T08:16:32.626Z,0.00
2018-04-12T08:17:32.759Z,0.00
2018-04-12T08:18:32.742Z,0.00
2018-04-12T08:19:32.787Z,0.00
2018-04-12T08:20:32.688Z,0.00
2018-04-12T08:21:32.822Z,0.00
2018-04-12T08:22:32.832Z,0.00
2018-04-12T08:23:32.969Z,0.00
2018-04-12T08:24:32.866Z,0.00
2018-04-12T08:25:32.878Z,0.00
2018-04-12T08:26:32.764Z,0.00
2018-04-12T08:27:32.907Z,0.00
2018-04-12T08:28:32.908Z,0.00
2018-04-12T08:29:32.937Z,0.00
2018-04-12T08:30:32.956Z,0.00
2018-04-12T08:31:32.968Z,0.00
2018-04-12T08:32:32.852Z,0.00
2018-04-12T08:33:32.995Z,0.00
2018-04-12T08:34:32.991Z,0.00
2018-04-12T08:35:33.028Z,0.00
2018-04-12T08:36:33.038Z,0.00
2018-04-12T08:37:32.937Z,0.00
2018-04-12T08:38:33.066Z,0.00
2018-04-12T08:39:33.058Z,0.00
2018-04-12T08:40:32.985Z,0.00
2018-04-12T08:41:32.998Z,0.00
2018-04-12T08:42:33.128Z,0.00
2018-04-12T08:43:33.140Z,0.00
2018-04-12T08:44:33.037Z,0.00
2018-04-12T08:45:33.162Z,0.00
2018-04-12T08:46:33.186Z,0.00
2018-04-12T08:47:33.198Z,0.00
2018-04-12T08:48:33.213Z,0.00
2018-04-12T08:49:33.109Z,0.00
2018-04-12T08:50:33.343Z,0.00
2018-04-12T08:51:33.131Z,0.00
2018-04-12T08:52:33.275Z,0.00
2018-04-12T08:53:33.288Z,0.00
2018-04-12T08:54:33.173Z,0.00
2018-04-12T08:55:33.469Z,4.00
2018-04-12T08:56:33.213Z,4.00
2018-04-12T08:57:33.230Z,0.00
2018-04-12T08:58:33.233Z,4.00
2018-04-12T08:59:33.253Z,4.00
2018-04-12T09:00:33.489Z,8.00
2018-04-12T09:01:33.404Z,12.00
2018-04-12T09:02:33.297Z,12.00
2018-04-12T09:03:33.323Z,16.00
2018-04-12T09:04:33.448Z,24.00
2018-04-12T09:05:33.437Z,28.00
2018-04-12T09:06:33.476Z,36.00
2018-04-12T09:07:33.364Z,44.00
2018-04-12T09:08:33.387Z,56.00
2018-04-12T09:09:33.521Z,68.00
2018-04-12T09:10:33.512Z,80.00
2018-04-12T09:11:33.550Z,96.00
2018-04-12T09:12:33.564Z,116.00
2018-04-12T09:13:33.460Z,136.00
2018-04-12T09:14:33.591Z,160.00
2018-04-12T09:15:33.707Z,184.00
2018-04-12T09:16:33.516Z,212.00
2018-04-12T09:17:33.522Z,236.00
2018-04-12T09:18:33.540Z,272.00
2018-04-12T09:19:33.668Z,308.00
2018-04-12T09:20:33.654Z,340.00
2018-04-12T09:21:33.697Z,380.00
2018-04-12T09:22:33.716Z,424.00
2018-04-12T09:23:33.725Z,468.00
2018-04-12T09:24:33.739Z,516.00
2018-04-12T09:25:33.783Z,564.00
2018-04-12T09:26:33.767Z,616.00
2018-04-12T09:27:33.659Z,676.00
2018-04-12T09:28:33.799Z,736.00
2018-04-12T09:29:33.810Z,804.00
2018-04-12T09:30:33.925Z,896.00
2018-04-12T09:31:33.840Z,1036.00
2018-04-12T09:32:33.855Z,1200.00
2018-04-12T09:33:33.747Z,1440.00
2018-04-12T09:34:33.884Z,1668.00
2018-04-12T09:35:33.997Z,1832.00
2018-04-12T09:36:33.793Z,2028.00
2018-04-12T09:37:33.934Z,2204.00
2018-04-12T09:38:33.944Z,2420.00
2018-04-12T09:39:33.958Z,2972.00
2018-04-12T09:40:33.863Z,3580.00
2018-04-12T09:41:33.975Z,3868.00
2018-04-12T09:42:33.873Z,4208.00
2018-04-12T09:43:34.015Z,4420.00
2018-04-12T09:44:34.034Z,4772.00
2018-04-12T09:45:34.048Z,5256.00
2018-04-12T09:46:34.035Z,5784.00
2018-04-12T09:47:34.075Z,6092.00
2018-04-12T09:48:33.972Z,6332.00
2018-04-12T09:49:33.983Z,7044.00
2018-04-12T09:50:34.121Z,7416.00
2018-04-12T09:51:34.213Z,7976.00
2018-04-12T09:52:34.152Z,8492.00
2018-04-12T09:53:34.172Z,8800.00
2018-04-12T09:54:34.182Z,9200.00
2018-04-12T09:55:34.197Z,9664.00
2018-04-12T09:56:34.317Z,10320.00
2018-04-12T09:57:34.095Z,10868.00
2018-04-12T09:58:34.243Z,11176.00
2018-04-12T09:59:34.261Z,11424.00
2018-04-12T10:00:34.155Z,12196.00
2018-04-12T10:01:34.396Z,12960.00
2018-04-12T10:02:34.188Z,13600.00
2018-04-12T10:03:34.215Z,13856.00
2018-04-12T10:04:34.225Z,14272.00
2018-04-12T10:05:34.241Z,14752.00
2018-04-12T10:06:34.478Z,15104.00
2018-04-12T10:07:34.267Z,15328.00
2018-04-12T10:08:34.285Z,15616.00
2018-04-12T10:09:34.298Z,16000.00
2018-04-12T10:10:34.316Z,16416.00
2018-04-12T10:11:34.562Z,16928.00
2018-04-12T10:12:34.479Z,16864.00
2018-04-12T10:13:34.373Z,17632.00
2018-04-12T10:14:34.514Z,18432.00
2018-04-12T10:15:34.406Z,18720.00
2018-04-12T10:16:34.535Z,18848.00
2018-04-12T10:17:34.460Z,19072.00
2018-04-12T10:18:34.585Z,19392.00
2018-04-12T10:19:34.491Z,19296.00
2018-04-12T10:20:34.504Z,19840.00
2018-04-12T10:21:34.752Z,20032.00
2018-04-12T10:22:34.665Z,20544.00
2018-04-12T10:23:34.559Z,20896.00
2018-04-12T10:24:34.698Z,21216.00
2018-04-12T10:25:34.656Z,21504.00
2018-04-12T10:26:34.835Z,22080.00
2018-04-12T10:27:34.628Z,22112.00
2018-04-12T10:28:34.772Z,22464.00
2018-04-12T10:29:34.793Z,22784.00
2018-04-12T10:30:34.813Z,23264.00
2018-04-12T10:31:34.930Z,23456.00
2018-04-12T10:32:34.848Z,23648.00
2018-04-12T10:33:34.870Z,23840.00
2018-04-12T10:34:34.772Z,24512.00
2018-04-12T10:35:34.780Z,24928.00
2018-04-12T10:36:34.903Z,25344.00
2018-04-12T10:37:34.947Z,25248.00
2018-04-12T10:38:34.837Z,25504.00
2018-04-12T10:39:35.019Z,26080.00
2018-04-12T10:40:34.894Z,26272.00
2018-04-12T10:41:35.169Z,26464.00
2018-04-12T10:42:34.930Z,27072.00
2018-04-12T10:43:35.098Z,26752.00
2018-04-12T10:44:35.093Z,27008.00
2018-04-12T10:45:34.992Z,27648.00
2018-04-12T10:46:35.097Z,27680.00
2018-04-12T10:47:35.151Z,28288.00
2018-04-12T10:48:35.166Z,28288.00
2018-04-12T10:49:35.064Z,29152.00
2018-04-12T10:50:35.207Z,29408.00
2018-04-12T10:51:35.201Z,29440.00
2018-04-12T10:52:35.247Z,29536.00
2018-04-12T10:53:35.133Z,30048.00
2018-04-12T10:54:35.288Z,30080.00
2018-04-12T10:55:35.182Z,30912.00
2018-04-12T10:56:35.301Z,30752.00
2018-04-12T10:57:35.350Z,30784.00
2018-04-12T10:58:35.242Z,31232.00
2018-04-12T10:59:35.278Z,31904.00
2018-04-12T11:00:35.300Z,31904.00
2018-04-12T11:01:35.540Z,31872.00
2018-04-12T11:02:35.456Z,31616.00
2018-04-12T11:03:35.362Z,32448.00
2018-04-12T11:04:35.372Z,33056.00
2018-04-12T11:05:35.518Z,32896.00
2018-04-12T11:06:35.529Z,33056.00
2018-04-12T11:07:35.562Z,27904.00
2018-04-12T11:08:35.590Z,31328.00
2018-04-12T11:09:35.603Z,33344.00
2018-04-12T11:10:35.501Z,32640.00
2018-04-12T11:11:35.633Z,35104.00
2018-04-12T11:12:35.668Z,30784.00
2018-04-12T11:13:35.567Z,33824.00
2018-04-12T11:14:35.713Z,36704.00
2018-04-12T11:15:35.735Z,40768.00
2018-04-12T11:16:35.860Z,45856.00
2018-04-12T11:17:35.672Z,48576.00
2018-04-12T11:18:35.675Z,57984.00
2018-04-12T11:19:35.697Z,59200.00
2018-04-12T11:20:35.721Z,57568.00
2018-04-12T11:21:36.169Z,85664.00
2018-04-12T11:22:35.889Z,81056.00
2018-04-12T11:23:35.791Z,101728.00
2018-04-12T11:24:35.819Z,58336.00
2018-04-12T11:25:35.874Z,108320.00
2018-04-12T11:26:35.980Z,93504.00
2018-04-12T11:27:35.981Z,84864.00
2018-04-12T11:28:36.058Z,38912.00
2018-04-12T11:29:36.045Z,45152.00
2018-04-12T11:30:36.066Z,81024.00
2018-04-12T11:31:36.108Z,75200.00
2018-04-12T11:32:36.086Z,34944.00
2018-04-12T11:33:36.009Z,116192.00
2018-04-12T11:34:36.033Z,71936.00
2018-04-12T11:35:36.058Z,98912.00
2018-04-12T11:36:36.081Z,29664.00
2018-04-12T11:37:36.125Z,117696.00
2018-04-12T11:38:36.226Z,114528.00
2018-04-12T11:39:36.171Z,116544.00
2018-04-12T11:40:36.174Z,114976.00
2018-04-12T11:41:36.208Z,110688.00
2018-04-12T11:42:36.336Z,112128.00
2018-04-12T11:43:36.333Z,102208.00
2018-04-12T11:44:36.253Z,116640.00
2018-04-12T11:45:36.290Z,55872.00
2018-04-12T11:46:36.305Z,116448.00
2018-04-12T11:47:36.446Z,117824.00
2018-04-12T11:48:36.457Z,32160.00
2018-04-12T11:49:36.511Z,106592.00
2018-04-12T11:50:36.514Z,48384.00
2018-04-12T11:51:36.426Z,43136.00
2018-04-12T11:52:36.566Z,21152.00
2018-04-12T11:53:36.685Z,38400.00
2018-04-12T11:54:36.480Z,23872.00
2018-04-12T11:55:36.629Z,43776.00
2018-04-12T11:56:36.684Z,18016.00
2018-04-12T11:57:36.678Z,165184.00
2018-04-12T11:58:36.687Z,67264.00
2018-04-12T11:59:36.726Z,64576.00
2018-04-12T12:00:36.629Z,19072.00
2018-04-12T12:01:36.676Z,44704.00
2018-04-12T12:02:36.785Z,45504.00
2018-04-12T12:03:36.837Z,20480.00
2018-04-12T12:04:36.830Z,14400.00
2018-04-12T12:05:36.855Z,34624.00
2018-04-12T12:06:36.760Z,40608.00
2018-04-12T12:07:36.895Z,4316.00
2018-04-12T12:08:37.022Z,13792.00
2018-04-12T12:09:36.813Z,16988.00
2018-04-12T12:10:36.959Z,38112.00
2018-04-12T12:11:36.850Z,147552.00
2018-04-12T12:12:36.888Z,72320.00
2018-04-12T12:13:37.110Z,59968.00
2018-04-12T12:14:36.931Z,19728.00
2018-04-12T12:15:36.941Z,54400.00
2018-04-12T12:16:36.964Z,13636.00
2018-04-12T12:17:37.115Z,11580.00
2018-04-12T12:18:37.004Z,11796.00
2018-04-12T12:19:37.251Z,9956.00
2018-04-12T12:20:37.173Z,33344.00
2018-04-12T12:21:37.072Z,4392.00
2018-04-12T12:22:37.213Z,11608.00
2018-04-12T12:23:37.109Z,10668.00
2018-04-12T12:24:37.493Z,10556.00
2018-04-12T12:25:37.150Z,19780.00
2018-04-12T12:26:37.299Z,19840.00
2018-04-12T12:27:37.205Z,14872.00
2018-04-12T12:28:37.345Z,40416.00
2018-04-12T12:29:37.347Z,63296.00
2018-04-12T12:30:37.266Z,17856.00
2018-04-12T12:31:37.402Z,45696.00
2018-04-12T12:32:37.421Z,13764.00
2018-04-12T12:33:37.319Z,36160.00
2018-04-12T12:34:37.442Z,21184.00
2018-04-12T12:35:37.484Z,26016.00
2018-04-12T12:36:37.505Z,49984.00
2018-04-12T12:37:37.523Z,13400.00
2018-04-12T12:38:37.410Z,66176.00
2018-04-12T12:39:37.544Z,54912.00
2018-04-12T12:40:37.473Z,72320.00
2018-04-12T12:41:37.480Z,22816.00
2018-04-12T12:42:37.509Z,49248.00
2018-04-12T12:43:37.515Z,26048.00
2018-04-12T12:44:37.768Z,55104.00
2018-04-12T12:45:37.686Z,36832.00
2018-04-12T12:46:37.580Z,0.00
2018-04-12T12:47:37.726Z,0.00
2018-04-12T12:48:37.634Z,0.00
2018-04-12T12:49:37.792Z,11196.00
2018-04-12T12:50:37.786Z,10408.00
2018-04-12T12:51:37.688Z,13036.00